createdAt,value
2018-10-17T00:00:55.908Z,20.8
2018-10-17T00:02:08.208Z,20.8
2018-10-17T00:03:20.392Z,20.8
2018-10-17T00:04:32.562Z,20.8
2018-10-17T00:05:44.785Z,20.8
2018-10-17T00:06:56.950Z,20.8
2018-10-17T00:08:09.155Z,20.8
2018-10-17T00:09:21.345Z,20.8
2018-10-17T00:10:33.494Z,20.8
2018-10-17T00:11:45.807Z,20.8
2018-10-17T00:12:57.923Z,20.8
2018-10-17T00:14:10.122Z,20.8
2018-10-17T00:15:22.298Z,20.8
2018-10-17T00:16:34.492Z,20.8
2018-10-17T00:17:46.692Z,20.8
2018-10-17T00:18:58.887Z,20.8
2018-10-17T00:20:11.072Z,20.8
2018-10-17T00:21:23.273Z,20.8
2018-10-17T00:22:35.463Z,20.8
2018-10-17T00:23:47.669Z,20.8
2018-10-17T00:24:59.858Z,20.8
2018-10-17T00:26:12.127Z,20.8
2018-10-17T00:27:24.236Z,20.8
2018-10-17T00:28:36.473Z,20.8
2018-10-17T00:29:48.558Z,20.8
2018-10-17T00:31:00.869Z,20.8
2018-10-17T00:32:13.010Z,20.8
2018-10-17T00:33:25.207Z,20.8
2018-10-17T00:34:37.430Z,20.8
2018-10-17T00:35:49.599Z,20.8
2018-10-17T00:37:01.889Z,20.8
2018-10-17T00:38:13.978Z,20.8
2018-10-17T00:39:26.124Z,20.8
2018-10-17T00:40:38.329Z,20.8
2018-10-17T00:41:50.568Z,20.8
2018-10-17T00:43:02.751Z,20.8
2018-10-17T00:44:14.958Z,20.8
2018-10-17T00:45:27.147Z,20.8
2018-10-17T00:46:39.261Z,20.8
2018-10-17T00:47:51.572Z,20.8
2018-10-17T00:49:03.723Z,20.8
2018-10-17T00:50:15.919Z,20.8
2018-10-17T00:51:28.040Z,20.8
2018-10-17T00:52:40.307Z,20.8
2018-10-17T00:53:52.495Z,20.8
2018-10-17T00:55:04.708Z,20.8
2018-10-17T00:56:16.917Z,20.7
2018-10-17T00:57:29.076Z,20.7
2018-10-17T00:58:41.224Z,20.7
2018-10-17T00:59:53.466Z,20.8
2018-10-17T01:01:05.661Z,20.7
2018-10-17T01:02:17.794Z,20.7
2018-10-17T01:03:29.976Z,20.7
2018-10-17T01:04:42.241Z,20.7
2018-10-17T01:05:54.442Z,20.7
2018-10-17T01:07:06.631Z,20.7
2018-10-17T01:08:18.821Z,20.7
2018-10-17T01:09:31.011Z,20.7
2018-10-17T01:10:43.212Z,20.7
2018-10-17T01:11:55.390Z,20.7
2018-10-17T01:13:07.601Z,20.7
2018-10-17T01:14:19.793Z,20.7
2018-10-17T01:15:32.009Z,20.7
2018-10-17T01:16:44.173Z,20.7
2018-10-17T01:17:56.371Z,20.7
2018-10-17T01:19:08.595Z,20.7
2018-10-17T01:20:20.761Z,20.7
2018-10-17T01:21:32.872Z,20.7
2018-10-17T01:22:45.168Z,20.7
2018-10-17T01:23:57.358Z,20.7
2018-10-17T01:25:09.531Z,20.7
2018-10-17T01:26:21.736Z,20.7
2018-10-17T01:27:33.916Z,20.7
2018-10-17T01:28:46.125Z,20.7
2018-10-17T01:29:58.309Z,20.7
2018-10-17T01:31:10.435Z,20.7
2018-10-17T01:32:23.060Z,20.7
2018-10-17T01:33:34.879Z,20.7
2018-10-17T01:34:47.008Z,20.7
2018-10-17T01:35:59.271Z,20.7
2018-10-17T01:37:11.463Z,20.7
2018-10-17T01:38:23.610Z,20.7
2018-10-17T01:39:35.855Z,20.7
2018-10-17T01:40:48.072Z,20.7
2018-10-17T01:42:00.251Z,20.7
2018-10-17T01:43:12.533Z,20.7
2018-10-17T01:44:24.553Z,20.7
2018-10-17T01:45:36.827Z,20.7
2018-10-17T01:46:49.015Z,20.7
2018-10-17T01:48:01.212Z,20.7
2018-10-17T01:49:13.413Z,20.7
2018-10-17T01:50:25.757Z,20.7
2018-10-17T01:51:37.792Z,20.7
2018-10-17T01:52:49.991Z,20.7
2018-10-17T01:54:02.180Z,20.7
2018-10-17T01:55:14.369Z,20.7
2018-10-17T01:56:26.500Z,20.6
2018-10-17T01:57:38.774Z,20.6
2018-10-17T01:58:50.952Z,20.6
2018-10-17T02:00:03.083Z,20.6
2018-10-17T02:01:15.297Z,20.6
2018-10-17T02:02:27.554Z,20.6
2018-10-17T02:03:39.731Z,20.6
2018-10-17T02:04:51.931Z,20.6
2018-10-17T02:06:04.157Z,20.6
2018-10-17T02:07:16.245Z,20.6
2018-10-17T02:08:28.520Z,20.6
2018-10-17T02:09:40.699Z,20.6
2018-10-17T02:10:52.896Z,20.6
2018-10-17T02:12:05.014Z,20.6
2018-10-17T02:13:17.275Z,20.6
2018-10-17T02:14:29.493Z,20.6
2018-10-17T02:15:41.665Z,20.6
2018-10-17T02:16:53.859Z,20.6
2018-10-17T02:18:06.056Z,20.6
2018-10-17T02:19:18.251Z,20.6
2018-10-17T02:20:30.453Z,20.6
2018-10-17T02:21:42.654Z,20.6
2018-10-17T02:22:54.835Z,20.6
2018-10-17T02:24:07.081Z,20.6
2018-10-17T02:25:19.325Z,20.6
2018-10-17T02:26:31.425Z,20.6
2018-10-17T02:27:43.604Z,20.6
2018-10-17T02:28:55.813Z,20.6
2018-10-17T02:30:07.995Z,20.6
2018-10-17T02:31:20.206Z,20.6
2018-10-17T02:32:32.387Z,20.6
2018-10-17T02:33:44.516Z,20.6
2018-10-17T02:34:56.776Z,20.6
2018-10-17T02:36:08.911Z,20.6
2018-10-17T02:37:21.167Z,20.6
2018-10-17T02:38:33.355Z,20.6
2018-10-17T02:39:45.583Z,20.6
2018-10-17T02:40:57.746Z,20.6
2018-10-17T02:42:09.873Z,20.6
2018-10-17T02:43:22.176Z,20.6
2018-10-17T02:44:34.336Z,20.6
2018-10-17T02:45:46.527Z,20.6
2018-10-17T02:46:58.801Z,20.6
2018-10-17T02:48:10.928Z,20.6
2018-10-17T02:49:24.043Z,20.6
2018-10-17T02:50:35.330Z,20.6
2018-10-17T02:51:47.498Z,20.6
2018-10-17T02:52:59.736Z,20.6
2018-10-17T02:54:11.888Z,20.6
2018-10-17T02:55:24.122Z,20.6
2018-10-17T02:56:36.287Z,20.6
2018-10-17T03:14:39.217Z,20.5
2018-10-17T03:15:51.409Z,20.5
2018-10-17T03:17:03.598Z,20.5
2018-10-17T03:18:15.820Z,20.5
2018-10-17T03:19:27.992Z,20.5
2018-10-17T03:20:40.229Z,20.5
2018-10-17T03:21:52.992Z,20.5
2018-10-17T03:23:04.592Z,20.5
2018-10-17T03:24:16.831Z,20.5
2018-10-17T03:25:28.973Z,20.5
2018-10-17T03:26:41.171Z,20.5
2018-10-17T03:27:53.371Z,20.5
2018-10-17T03:29:05.607Z,20.5
2018-10-17T03:30:17.764Z,20.5
2018-10-17T03:31:29.871Z,20.5
2018-10-17T03:32:42.152Z,20.5
2018-10-17T03:33:54.340Z,20.5
2018-10-17T03:35:06.463Z,20.5
2018-10-17T03:36:18.742Z,20.5
2018-10-17T03:37:30.932Z,20.5
2018-10-17T03:38:43.126Z,20.5
2018-10-17T03:39:55.317Z,20.5
2018-10-17T03:41:07.510Z,20.5
2018-10-17T03:42:19.818Z,20.5
2018-10-17T03:43:32.055Z,20.5
2018-10-17T03:44:44.016Z,20.5
2018-10-17T03:45:56.291Z,20.5
2018-10-17T03:47:08.487Z,20.5
2018-10-17T03:48:20.693Z,20.5
2018-10-17T03:49:32.832Z,20.5
2018-10-17T03:50:45.080Z,20.5
2018-10-17T03:51:57.262Z,20.5
2018-10-17T03:53:09.423Z,20.5
2018-10-17T03:54:21.656Z,20.5
2018-10-17T03:55:33.780Z,20.5
2018-10-17T03:56:46.046Z,20.5
2018-10-17T03:57:58.255Z,20.5
2018-10-17T03:59:10.396Z,20.5
2018-10-17T04:00:22.643Z,20.5
2018-10-17T04:01:34.898Z,20.5
2018-10-17T04:02:46.956Z,20.5
2018-10-17T04:04:00.839Z,20.5
2018-10-17T04:05:11.430Z,20.5
2018-10-17T04:06:23.769Z,20.5
2018-10-17T04:07:35.807Z,20.5
2018-10-17T04:08:48.007Z,20.5
2018-10-17T04:10:00.195Z,20.5
2018-10-17T04:11:12.389Z,20.5
2018-10-17T04:12:24.633Z,20.5
2018-10-17T04:13:36.707Z,20.5
2018-10-17T04:14:49.031Z,20.5
2018-10-17T04:16:01.235Z,20.5
2018-10-17T04:17:13.376Z,20.5
2018-10-17T04:18:25.491Z,20.5
2018-10-17T04:19:37.759Z,20.5
2018-10-17T04:20:49.956Z,20.5
2018-10-17T04:22:02.144Z,20.4
2018-10-17T04:23:14.350Z,20.4
2018-10-17T04:24:26.533Z,20.5
2018-10-17T04:25:38.736Z,20.5
2018-10-17T04:26:50.943Z,20.5
2018-10-17T04:28:03.124Z,20.4
2018-10-17T04:29:15.389Z,20.4
2018-10-17T04:30:27.520Z,20.4
2018-10-17T04:31:39.634Z,20.4
2018-10-17T04:32:51.920Z,20.4
2018-10-17T04:34:04.109Z,20.4
2018-10-17T04:35:16.310Z,20.4
2018-10-17T04:36:28.505Z,20.4
2018-10-17T04:37:40.690Z,20.4
2018-10-17T04:38:52.809Z,20.4
2018-10-17T04:40:05.097Z,20.4
2018-10-17T04:41:17.272Z,20.4
2018-10-17T04:42:29.473Z,20.4
2018-10-17T04:43:41.663Z,20.4
2018-10-17T04:44:53.862Z,20.4
2018-10-17T04:46:05.981Z,20.4
2018-10-17T04:47:18.253Z,20.4
2018-10-17T04:48:30.376Z,20.4
2018-10-17T04:49:42.643Z,20.4
2018-10-17T04:50:54.836Z,20.4
2018-10-17T04:52:07.102Z,20.4
2018-10-17T04:53:19.230Z,20.4
2018-10-17T04:54:31.440Z,20.4
2018-10-17T04:55:43.619Z,20.4
2018-10-17T04:56:55.808Z,20.4
2018-10-17T04:58:08.021Z,20.4
2018-10-17T04:59:20.125Z,20.4
2018-10-17T05:00:32.397Z,20.4
2018-10-17T05:01:44.592Z,20.4
2018-10-17T05:02:56.716Z,20.4
2018-10-17T05:04:09.003Z,20.4
2018-10-17T05:05:21.189Z,20.4
2018-10-17T05:06:33.390Z,20.4
2018-10-17T05:07:45.514Z,20.4
2018-10-17T05:08:57.688Z,20.4
2018-10-17T05:10:10.042Z,20.4
2018-10-17T05:11:22.186Z,20.4
2018-10-17T05:12:34.342Z,20.4
2018-10-17T05:13:46.559Z,20.4
2018-10-17T05:14:58.796Z,20.4
2018-10-17T05:16:11.528Z,20.4
2018-10-17T05:17:23.080Z,20.4
2018-10-17T05:18:38.028Z,20.4
2018-10-17T05:19:47.526Z,20.4
2018-10-17T05:20:59.720Z,20.4
2018-10-17T05:22:11.972Z,20.4
2018-10-17T05:23:24.106Z,20.4
2018-10-17T05:24:36.305Z,20.4
2018-10-17T05:25:48.424Z,20.4
2018-10-17T05:27:00.755Z,20.4
2018-10-17T05:28:12.821Z,20.4
2018-10-17T05:29:25.086Z,20.4
2018-10-17T05:30:37.277Z,20.4
2018-10-17T05:31:49.396Z,20.3
2018-10-17T05:33:01.686Z,20.4
2018-10-17T05:34:13.787Z,20.4
2018-10-17T05:35:26.059Z,20.3
2018-10-17T05:36:38.270Z,20.3
2018-10-17T05:37:50.452Z,20.3
2018-10-17T05:39:02.649Z,20.3
2018-10-17T05:40:14.841Z,20.3
2018-10-17T05:41:27.048Z,20.3
2018-10-17T05:42:39.304Z,20.3
2018-10-17T05:43:51.444Z,20.3
2018-10-17T05:45:03.625Z,20.3
2018-10-17T05:46:15.850Z,20.3
2018-10-17T05:47:28.029Z,20.3
2018-10-17T05:48:40.230Z,20.3
2018-10-17T05:49:54.113Z,20.3
2018-10-17T05:51:04.618Z,20.3
2018-10-17T05:52:16.828Z,20.3
2018-10-17T05:53:28.992Z,20.3
2018-10-17T05:54:41.179Z,20.3
2018-10-17T05:55:53.421Z,20.3
2018-10-17T05:57:05.582Z,20.3
2018-10-17T05:58:17.772Z,20.3
2018-10-17T05:59:29.959Z,20.3
2018-10-17T06:00:42.172Z,20.3
2018-10-17T06:01:54.281Z,20.3
2018-10-17T06:03:06.550Z,20.3
2018-10-17T06:04:18.744Z,20.3
2018-10-17T06:05:30.954Z,20.3
2018-10-17T06:06:43.170Z,20.3
2018-10-17T06:07:55.335Z,20.3
2018-10-17T06:09:07.539Z,20.3
2018-10-17T06:10:19.727Z,20.3
2018-10-17T06:11:31.943Z,20.3
2018-10-17T06:12:44.114Z,20.3
2018-10-17T06:13:56.315Z,20.3
2018-10-17T06:15:08.527Z,20.3
2018-10-17T06:16:20.702Z,20.3
2018-10-17T06:17:32.898Z,20.3
2018-10-17T06:18:45.017Z,20.3
2018-10-17T06:19:57.286Z,20.3
2018-10-17T06:21:09.657Z,20.3
2018-10-17T06:22:21.834Z,20.3
2018-10-17T06:23:33.873Z,20.3
2018-10-17T06:24:46.075Z,20.3
2018-10-17T06:25:58.263Z,20.3
2018-10-17T06:27:14.763Z,20.4
2018-10-17T06:28:22.665Z,20.4
2018-10-17T06:29:34.856Z,20.4
2018-10-17T06:30:47.049Z,20.4
2018-10-17T06:31:59.234Z,20.4
2018-10-17T06:33:11.373Z,20.4
2018-10-17T06:34:23.563Z,20.4
2018-10-17T06:35:35.842Z,20.4
2018-10-17T06:36:48.016Z,20.4
2018-10-17T06:38:00.253Z,20.4
2018-10-17T06:39:12.406Z,20.4
2018-10-17T06:40:24.578Z,20.4
2018-10-17T06:41:36.795Z,20.4
2018-10-17T06:42:48.998Z,20.4
2018-10-17T06:44:01.212Z,20.4
2018-10-17T06:45:13.384Z,20.4
2018-10-17T06:46:25.586Z,20.4
2018-10-17T06:47:37.782Z,20.4
2018-10-17T06:48:49.901Z,20.4
2018-10-17T06:50:02.189Z,20.4
2018-10-17T06:51:14.366Z,20.4
2018-10-17T06:52:26.591Z,20.4
2018-10-17T06:53:38.772Z,20.4
2018-10-17T06:54:50.880Z,20.4
2018-10-17T06:56:03.146Z,20.4
2018-10-17T06:57:15.341Z,20.4
2018-10-17T06:58:27.575Z,20.4
2018-10-17T06:59:39.732Z,20.4
2018-10-17T07:00:51.963Z,20.4
2018-10-17T07:02:04.150Z,20.4
2018-10-17T07:03:16.337Z,20.4
2018-10-17T07:04:28.512Z,20.4
2018-10-17T07:05:40.719Z,20.4
2018-10-17T07:06:52.858Z,20.4
2018-10-17T07:08:05.127Z,20.4
2018-10-17T07:09:17.329Z,20.4
2018-10-17T07:10:29.425Z,20.4
2018-10-17T07:11:41.696Z,20.4
2018-10-17T07:12:53.894Z,20.4
2018-10-17T07:14:06.095Z,20.4
2018-10-17T07:15:18.280Z,20.4
2018-10-17T07:16:30.471Z,20.4
2018-10-17T07:17:42.600Z,20.4
2018-10-17T07:18:54.788Z,20.4
2018-10-17T07:20:09.035Z,20.4
2018-10-17T07:21:19.177Z,20.4
2018-10-17T07:22:31.455Z,20.4
2018-10-17T07:23:43.572Z,20.4
2018-10-17T07:24:55.843Z,20.4
2018-10-17T07:26:07.964Z,20.4
2018-10-17T07:27:20.231Z,20.4
2018-10-17T07:28:32.450Z,20.4
2018-10-17T07:29:44.678Z,20.4
2018-10-17T07:30:56.852Z,20.4
2018-10-17T07:32:09.025Z,20.4
2018-10-17T07:33:21.216Z,20.4
2018-10-17T07:34:33.434Z,20.4
2018-10-17T07:35:45.624Z,20.4
2018-10-17T07:36:57.799Z,20.4
2018-10-17T07:38:10.004Z,20.4
2018-10-17T07:39:22.202Z,20.4
2018-10-17T07:40:34.395Z,20.5
2018-10-17T07:41:46.519Z,20.4
2018-10-17T07:42:58.781Z,20.5
2018-10-17T07:44:10.980Z,20.4
2018-10-17T07:45:23.195Z,20.4
2018-10-17T07:46:35.343Z,20.4
2018-10-17T07:47:47.560Z,20.5
2018-10-17T07:48:59.798Z,20.5
2018-10-17T07:50:11.950Z,20.5
2018-10-17T07:51:24.240Z,20.5
2018-10-17T07:52:37.888Z,20.5
2018-10-17T07:53:48.470Z,20.5
2018-10-17T07:55:00.824Z,20.5
2018-10-17T07:56:12.937Z,20.5
2018-10-17T07:57:25.060Z,20.5
2018-10-17T07:58:37.343Z,20.5
2018-10-17T07:59:49.523Z,20.5
2018-10-17T08:01:01.732Z,20.5
2018-10-17T08:02:13.907Z,20.5
2018-10-17T08:03:26.145Z,20.5
2018-10-17T08:04:38.224Z,20.5
2018-10-17T08:05:50.667Z,20.5
2018-10-17T08:07:02.700Z,20.5
2018-10-17T08:08:14.951Z,20.5
2018-10-17T08:09:27.079Z,20.5
2018-10-17T08:10:39.515Z,20.5
2018-10-17T08:11:51.487Z,20.5
2018-10-17T08:13:03.695Z,20.5
2018-10-17T08:14:15.905Z,20.5
2018-10-17T08:15:28.060Z,20.5
2018-10-17T08:16:40.386Z,20.5
2018-10-17T08:17:52.380Z,20.5
2018-10-17T08:19:04.660Z,20.5
2018-10-17T08:20:16.872Z,20.5
2018-10-17T08:21:29.043Z,20.5
2018-10-17T08:22:41.179Z,20.5
2018-10-17T08:23:53.435Z,20.5
2018-10-17T08:25:05.625Z,20.5
2018-10-17T08:26:17.823Z,20.5
2018-10-17T08:27:30.027Z,20.5
2018-10-17T08:28:42.234Z,20.5
2018-10-17T08:29:54.472Z,20.5
2018-10-17T08:31:06.688Z,20.5
2018-10-17T08:32:18.727Z,20.5
2018-10-17T08:33:31.081Z,20.5
2018-10-17T08:34:43.216Z,20.5
2018-10-17T08:35:55.390Z,20.5
2018-10-17T08:37:07.590Z,20.5
2018-10-17T08:38:19.778Z,20.5
2018-10-17T08:39:31.981Z,20.5
2018-10-17T08:40:44.130Z,20.5
2018-10-17T08:41:56.417Z,20.5
2018-10-17T08:43:08.487Z,20.5
2018-10-17T08:44:20.765Z,20.5
2018-10-17T08:45:32.958Z,20.5
2018-10-17T08:46:45.156Z,20.5
2018-10-17T08:47:57.283Z,20.5
2018-10-17T08:49:09.542Z,20.5
2018-10-17T08:50:21.795Z,20.5
2018-10-17T08:51:33.943Z,20.5
2018-10-17T08:52:46.137Z,20.6
2018-10-17T08:53:58.399Z,20.6
2018-10-17T08:55:10.452Z,20.6
2018-10-17T08:56:22.742Z,20.6
2018-10-17T08:57:34.980Z,20.6
2018-10-17T08:58:47.109Z,20.7
2018-10-17T08:59:59.311Z,20.7
2018-10-17T09:01:11.504Z,20.7
2018-10-17T09:02:23.653Z,20.7
2018-10-17T09:03:35.820Z,20.7
2018-10-17T09:04:48.095Z,20.7
2018-10-17T09:06:00.477Z,20.7
2018-10-17T09:07:12.490Z,20.7
2018-10-17T09:08:24.628Z,20.7
2018-10-17T09:09:36.880Z,20.7
2018-10-17T09:10:49.064Z,20.7
2018-10-17T09:12:01.189Z,20.7
2018-10-17T09:13:13.378Z,20.7
2018-10-17T09:14:25.702Z,20.7
2018-10-17T09:15:38.047Z,20.7
2018-10-17T09:16:50.051Z,20.7
2018-10-17T09:18:02.173Z,20.7
2018-10-17T09:19:14.433Z,20.7
2018-10-17T09:20:26.669Z,20.7
2018-10-17T09:21:38.834Z,20.8
2018-10-17T09:22:51.026Z,20.8
2018-10-17T09:24:03.237Z,20.8
2018-10-17T09:25:15.543Z,20.8
2018-10-17T09:26:27.606Z,20.8
2018-10-17T09:27:39.813Z,20.8
2018-10-17T09:28:52.026Z,20.8
2018-10-17T09:30:04.244Z,20.8
2018-10-17T09:31:16.318Z,20.8
2018-10-17T09:32:28.591Z,20.8
2018-10-17T09:33:40.833Z,20.8
2018-10-17T09:34:52.984Z,20.8
2018-10-17T09:36:05.173Z,20.8
2018-10-17T09:37:17.371Z,20.8
2018-10-17T09:38:29.580Z,20.8
2018-10-17T09:39:41.746Z,20.8
2018-10-17T09:40:53.952Z,20.8
2018-10-17T09:42:06.152Z,20.8
2018-10-17T09:43:18.352Z,20.8
2018-10-17T09:44:30.598Z,20.8
2018-10-17T09:45:42.737Z,20.8
2018-10-17T09:46:54.934Z,20.8
2018-10-17T09:48:07.133Z,20.8
2018-10-17T09:49:19.258Z,20.8
2018-10-17T09:50:31.518Z,20.8
2018-10-17T09:51:43.645Z,20.8
2018-10-17T09:52:55.916Z,20.8
2018-10-17T09:54:08.107Z,20.8
2018-10-17T09:55:20.344Z,20.8
2018-10-17T09:56:32.527Z,20.8
2018-10-17T09:58:56.888Z,20.9
2018-10-17T10:00:09.084Z,20.9
2018-10-17T10:01:21.280Z,20.9
2018-10-17T10:02:33.474Z,20.9
2018-10-17T10:03:45.716Z,20.9
2018-10-17T10:04:57.866Z,20.9
2018-10-17T10:06:10.061Z,20.9
2018-10-17T10:07:22.256Z,20.9
2018-10-17T10:08:34.381Z,20.9
2018-10-17T10:09:46.575Z,20.9
2018-10-17T10:10:58.844Z,20.9
2018-10-17T10:12:11.039Z,20.9
2018-10-17T10:13:23.235Z,20.9
2018-10-17T10:14:35.425Z,20.9
2018-10-17T10:15:47.627Z,20.9
2018-10-17T10:16:59.817Z,20.9
2018-10-17T10:18:12.017Z,20.9
2018-10-17T10:19:24.207Z,20.9
2018-10-17T10:20:36.414Z,20.9
2018-10-17T10:21:48.540Z,20.9
2018-10-17T10:23:00.835Z,20.9
2018-10-17T10:24:12.992Z,20.9
2018-10-17T10:25:25.193Z,20.9
2018-10-17T10:26:37.363Z,20.9
2018-10-17T10:27:49.611Z,20.9
2018-10-17T10:29:05.864Z,20.9
2018-10-17T10:30:13.971Z,20.9
2018-10-17T10:31:26.163Z,20.9
2018-10-17T10:32:38.309Z,21
2018-10-17T10:33:50.482Z,21
2018-10-17T10:35:02.753Z,21
2018-10-17T10:36:14.875Z,21
2018-10-17T10:37:27.136Z,21
2018-10-17T10:38:39.378Z,21
2018-10-17T10:39:51.538Z,21
2018-10-17T10:41:03.749Z,21
2018-10-17T10:42:15.937Z,21
2018-10-17T10:43:28.045Z,21
2018-10-17T10:44:40.312Z,21
2018-10-17T10:45:52.441Z,21
2018-10-17T10:47:04.720Z,21
2018-10-17T10:48:16.848Z,21
2018-10-17T10:49:29.089Z,21
2018-10-17T10:50:41.311Z,21
2018-10-17T10:51:53.478Z,21
2018-10-17T10:53:05.684Z,21
2018-10-17T10:54:17.873Z,21
2018-10-17T10:55:30.017Z,21
2018-10-17T10:56:42.268Z,21
2018-10-17T10:57:54.469Z,21
2018-10-17T10:59:06.662Z,21
2018-10-17T11:00:18.780Z,21
2018-10-17T11:01:31.046Z,21.1
2018-10-17T11:02:43.256Z,21.1
2018-10-17T11:03:55.433Z,21.1
2018-10-17T11:05:07.649Z,21.1
2018-10-17T11:06:19.825Z,21.1
2018-10-17T11:07:32.189Z,21.1
2018-10-17T11:08:44.272Z,21.1
2018-10-17T11:09:56.344Z,21.1
2018-10-17T11:11:09.043Z,21.1
2018-10-17T11:12:20.807Z,21.1
2018-10-17T11:13:32.974Z,21.1
2018-10-17T11:14:45.935Z,21.1
2018-10-17T11:15:57.541Z,21.1
2018-10-17T11:17:09.517Z,21.1
2018-10-17T11:18:21.912Z,21.1
2018-10-17T11:19:33.906Z,21.1
2018-10-17T11:20:46.187Z,21.1
2018-10-17T11:21:58.298Z,21.1
2018-10-17T11:23:10.564Z,21.1
2018-10-17T11:24:22.692Z,21.1
2018-10-17T11:25:34.953Z,21.1
2018-10-17T11:26:47.154Z,21.1
2018-10-17T11:27:59.456Z,21.2
2018-10-17T11:29:11.544Z,21.2
2018-10-17T11:30:23.660Z,21.2
2018-10-17T11:31:35.976Z,21.2
2018-10-17T11:32:48.126Z,21.2
2018-10-17T11:34:00.340Z,21.2
2018-10-17T11:35:12.519Z,21.2
2018-10-17T11:36:24.721Z,21.2
2018-10-17T11:37:36.909Z,21.2
2018-10-17T11:38:49.037Z,21.2
2018-10-17T11:40:01.232Z,21.2
2018-10-17T11:41:13.516Z,21.2
2018-10-17T11:42:25.619Z,21.2
2018-10-17T11:43:37.900Z,21.2
2018-10-17T11:44:50.046Z,21.2
2018-10-17T11:46:02.255Z,21.2
2018-10-17T11:47:16.015Z,21.2
2018-10-17T11:48:26.699Z,21.2
2018-10-17T11:49:38.961Z,21.2
2018-10-17T11:50:51.069Z,21.3
2018-10-17T11:52:03.253Z,21.3
2018-10-17T11:53:15.380Z,21.3
2018-10-17T11:54:27.577Z,21.3
2018-10-17T11:55:39.959Z,21.3
2018-10-17T11:56:52.090Z,21.3
2018-10-17T11:58:04.160Z,21.3
2018-10-17T11:59:16.362Z,21.3
2018-10-17T12:00:30.910Z,21.3
2018-10-17T12:01:40.807Z,21.4
2018-10-17T12:02:52.940Z,21.4
2018-10-17T12:04:05.318Z,21.4
2018-10-17T12:05:17.429Z,21.4
2018-10-17T12:06:31.093Z,21.4
2018-10-17T12:07:41.785Z,21.4
2018-10-17T12:08:54.090Z,21.4
2018-10-17T12:10:06.103Z,21.4
2018-10-17T12:11:18.376Z,21.4
2018-10-17T12:12:30.550Z,21.4
2018-10-17T12:13:42.749Z,21.4
2018-10-17T12:14:54.868Z,21.4
2018-10-17T12:16:07.133Z,21.4
2018-10-17T12:17:19.327Z,21.4
2018-10-17T12:18:31.565Z,21.5
2018-10-17T12:19:43.719Z,21.5
2018-10-17T12:20:55.952Z,21.5
2018-10-17T12:22:08.035Z,21.5
2018-10-17T12:23:20.222Z,21.5
2018-10-17T12:24:32.567Z,21.5
2018-10-17T12:25:44.809Z,21.5
2018-10-17T12:26:56.881Z,21.5
2018-10-17T12:28:09.072Z,21.5
2018-10-17T12:29:21.195Z,21.5
2018-10-17T12:30:33.464Z,21.5
2018-10-17T12:31:45.682Z,21.5
2018-10-17T12:32:57.865Z,21.5
2018-10-17T12:34:10.041Z,21.5
2018-10-17T12:35:22.234Z,21.5
2018-10-17T12:36:34.431Z,21.5
2018-10-17T12:37:46.550Z,21.5
2018-10-17T12:39:00.097Z,21.5
2018-10-17T12:40:10.941Z,21.6
2018-10-17T12:41:23.202Z,21.6
2018-10-17T12:42:35.412Z,21.6
2018-10-17T12:43:47.554Z,21.6
2018-10-17T12:44:59.903Z,21.6
2018-10-17T12:46:11.976Z,21.6
2018-10-17T12:47:24.177Z,21.6
2018-10-17T12:48:36.294Z,21.6
2018-10-17T12:49:48.563Z,21.6
2018-10-17T12:51:00.770Z,21.6
2018-10-17T12:53:25.063Z,21.6
2018-10-17T12:54:37.497Z,21.6
2018-10-17T12:55:49.530Z,21.6
2018-10-17T12:57:01.718Z,21.6
2018-10-17T12:58:13.919Z,21.6
2018-10-17T12:59:26.036Z,21.6
2018-10-17T13:00:38.238Z,21.6
2018-10-17T13:01:50.511Z,21.6
2018-10-17T13:03:02.695Z,21.6
2018-10-17T13:04:14.884Z,21.6
2018-10-17T13:05:27.008Z,21.6
2018-10-17T13:06:39.310Z,21.6
2018-10-17T13:07:51.460Z,21.6
2018-10-17T13:09:03.663Z,21.6
2018-10-17T13:10:15.970Z,21.6
2018-10-17T13:11:28.051Z,21.6
2018-10-17T13:12:40.297Z,21.6
2018-10-17T13:13:52.362Z,21.6
2018-10-17T13:15:04.660Z,21.6
2018-10-17T13:16:16.824Z,21.6
2018-10-17T13:17:29.112Z,21.6
2018-10-17T13:18:41.133Z,21.6
2018-10-17T13:19:53.401Z,21.6
2018-10-17T13:21:05.601Z,21.7
2018-10-17T13:22:17.718Z,21.7
2018-10-17T13:23:29.979Z,21.7
2018-10-17T13:24:42.107Z,21.7
2018-10-17T13:25:54.372Z,21.7
2018-10-17T13:27:06.563Z,21.7
2018-10-17T13:28:18.766Z,21.7
2018-10-17T13:29:31.014Z,21.7
2018-10-17T13:30:43.148Z,21.7
2018-10-17T13:31:55.348Z,21.7
2018-10-17T13:33:07.548Z,21.7
2018-10-17T13:34:19.736Z,21.7
2018-10-17T13:35:32.060Z,21.7
2018-10-17T13:36:44.044Z,21.7
2018-10-17T13:37:56.315Z,21.7
2018-10-17T13:39:08.503Z,21.7
2018-10-17T13:40:20.867Z,21.7
2018-10-17T13:41:32.888Z,21.7
2018-10-17T13:42:45.085Z,21.7
2018-10-17T13:43:57.293Z,21.7
2018-10-17T13:45:09.608Z,21.7
2018-10-17T13:46:21.684Z,21.7
2018-10-17T13:47:33.863Z,21.7
2018-10-17T13:48:45.984Z,21.7
2018-10-17T13:49:58.248Z,21.7
2018-10-17T13:51:10.481Z,21.7
2018-10-17T13:52:22.573Z,21.7
2018-10-17T13:53:34.850Z,21.7
2018-10-17T13:54:47.025Z,21.8
2018-10-17T13:55:59.220Z,21.7
2018-10-17T13:57:11.439Z,21.8
2018-10-17T13:58:23.612Z,21.8
2018-10-17T13:59:35.793Z,21.8
2018-10-17T14:00:48.029Z,21.8
2018-10-17T14:02:00.113Z,21.7
2018-10-17T14:03:12.376Z,21.8
2018-10-17T14:04:24.501Z,21.8
2018-10-17T14:05:36.771Z,21.8
2018-10-17T14:06:48.971Z,21.8
2018-10-17T14:08:01.156Z,21.8
2018-10-17T14:09:13.373Z,21.8
2018-10-17T14:10:25.539Z,21.8
2018-10-17T14:11:38.940Z,21.8
2018-10-17T14:12:49.983Z,21.8
2018-10-17T14:14:02.120Z,21.8
2018-10-17T14:15:16.030Z,21.8
2018-10-17T14:16:26.513Z,21.8
2018-10-17T14:17:38.699Z,21.8
2018-10-17T14:18:50.919Z,21.8
2018-10-17T14:20:03.095Z,21.8
2018-10-17T14:21:15.284Z,21.8
2018-10-17T14:22:27.485Z,21.8
2018-10-17T14:23:39.684Z,21.8
2018-10-17T14:24:51.887Z,21.8
2018-10-17T14:26:04.068Z,21.8
2018-10-17T14:27:16.909Z,21.8
2018-10-17T14:28:28.472Z,21.8
2018-10-17T14:29:42.836Z,21.8
2018-10-17T14:30:52.806Z,21.8
2018-10-17T14:32:05.060Z,21.8
2018-10-17T14:33:17.225Z,21.8
2018-10-17T14:34:29.347Z,21.8
2018-10-17T14:35:41.614Z,21.8
2018-10-17T14:36:53.799Z,21.8
2018-10-17T14:38:05.951Z,21.8
2018-10-17T14:39:18.234Z,21.8
2018-10-17T14:40:30.321Z,21.8
2018-10-17T14:41:42.579Z,21.8
2018-10-17T14:42:54.776Z,21.8
2018-10-17T14:44:06.976Z,21.8
2018-10-17T14:45:19.183Z,21.8
2018-10-17T14:46:31.462Z,21.8
2018-10-17T14:47:43.584Z,21.8
2018-10-17T14:48:55.745Z,21.8
2018-10-17T14:50:07.959Z,21.8
2018-10-17T14:51:20.058Z,21.8
2018-10-17T14:52:32.324Z,21.8
2018-10-17T14:53:44.520Z,21.8
2018-10-17T14:54:56.706Z,21.8
2018-10-17T14:56:08.836Z,21.8
2018-10-17T14:57:21.118Z,21.8
2018-10-17T14:58:33.296Z,21.8
2018-10-17T14:59:45.490Z,21.8
2018-10-17T15:00:57.609Z,21.8
2018-10-17T15:02:09.890Z,21.8
2018-10-17T15:03:22.071Z,21.8
2018-10-17T15:04:34.296Z,21.8
2018-10-17T15:05:46.379Z,21.8
2018-10-17T15:06:58.675Z,21.8
2018-10-17T15:08:10.768Z,21.8
2018-10-17T15:09:23.037Z,21.8
2018-10-17T15:10:35.379Z,21.8
2018-10-17T15:11:47.422Z,21.8
2018-10-17T15:12:59.614Z,21.8
2018-10-17T15:14:11.842Z,21.8
2018-10-17T15:15:24.005Z,21.8
2018-10-17T15:16:36.199Z,21.8
2018-10-17T15:17:48.468Z,21.8
2018-10-17T15:19:00.698Z,21.8
2018-10-17T15:20:12.778Z,21.8
2018-10-17T15:21:24.894Z,21.8
2018-10-17T15:22:37.122Z,21.8
2018-10-17T15:23:49.403Z,21.8
2018-10-17T15:25:01.580Z,21.8
2018-10-17T15:26:13.740Z,21.8
2018-10-17T15:27:25.872Z,21.8
2018-10-17T15:28:38.151Z,21.8
2018-10-17T15:29:50.329Z,21.8
2018-10-17T15:31:02.548Z,21.8
2018-10-17T15:32:14.714Z,21.8
2018-10-17T15:33:26.900Z,21.8
2018-10-17T15:34:39.102Z,21.8
2018-10-17T15:35:51.220Z,21.8
2018-10-17T15:37:03.487Z,21.8
2018-10-17T15:38:15.784Z,21.8
2018-10-17T15:39:27.961Z,21.8
2018-10-17T15:40:40.064Z,21.8
2018-10-17T15:41:52.192Z,21.8
2018-10-17T15:43:04.473Z,21.8
2018-10-17T15:44:16.655Z,21.8
2018-10-17T15:45:28.847Z,21.8
2018-10-17T15:46:41.581Z,21.8
2018-10-17T15:47:53.155Z,21.8
2018-10-17T15:49:05.432Z,21.8
2018-10-17T15:50:17.620Z,21.8
2018-10-17T15:51:29.826Z,21.8
2018-10-17T15:52:42.010Z,21.8
2018-10-17T15:53:54.201Z,21.8
2018-10-17T15:55:06.407Z,21.8
2018-10-17T15:56:18.518Z,21.8
2018-10-17T15:57:31.813Z,21.8
2018-10-17T15:58:42.987Z,21.8
2018-10-17T15:59:55.205Z,21.8
2018-10-17T16:01:07.401Z,21.8
2018-10-17T16:02:19.574Z,21.8
2018-10-17T16:03:31.817Z,21.8
2018-10-17T16:04:44.081Z,21.8
2018-10-17T16:05:56.144Z,21.8
2018-10-17T16:07:08.338Z,21.8
2018-10-17T16:08:20.588Z,21.8
2018-10-17T16:09:32.720Z,21.8
2018-10-17T16:10:44.944Z,21.8
2018-10-17T16:11:57.124Z,21.8
2018-10-17T16:13:09.311Z,21.8
2018-10-17T16:14:21.500Z,21.8
2018-10-17T16:15:33.719Z,21.8
2018-10-17T16:16:45.920Z,21.8
2018-10-17T16:17:58.012Z,21.8
2018-10-17T16:19:10.200Z,21.8
2018-10-17T16:20:22.472Z,21.8
2018-10-17T16:21:34.664Z,21.8
2018-10-17T16:22:46.989Z,21.8